Time;durP1;ratioP1;P1;durP2;ratioP2;P2;SDS_P1;SDS_P2;PMS_P1;PMS_P2;Temp;Humidity;BMP_temperature;BMP_pressure;BME280_temperature;BME280_humidity;BME280_pressure;Samples;Min_cycle;Max_cycle;Signal;HPM_P1;HPM_P2
2022/06/28 00:00:57;;;;;;;22.70;20.80;;;;;;;20.66;nan;99112.22;2099333;28;20900;-76
2022/06/28 00:02:01;;;;;;;21.77;19.97;;;;;;;20.61;nan;99104.41;2099116;28;20424;-76
2022/06/28 00:03:02;;;;;;;21.77;20.00;;;;;;;20.59;nan;99104.75;2099130;28;20194;-76
2022/06/28 00:04:04;;;;;;;22.03;20.30;;;;;;;20.59;nan;99106.69;2099040;28;20428;-76
2022/06/28 00:05:07;;;;;;;21.97;19.97;;;;;;;20.55;nan;99103.13;2090858;28;20229;-76
2022/06/28 00:06:09;;;;;;;21.07;19.37;;;;;;;20.53;nan;99100.00;2090928;28;20449;-76
2022/06/28 00:07:10;;;;;;;22.43;20.53;;;;;;;20.52;nan;99098.44;2091515;28;20563;-76
2022/06/28 00:08:12;;;;;;;22.07;20.27;;;;;;;20.52;nan;99109.28;2090784;28;20426;-76
2022/06/28 00:09:14;;;;;;;21.63;19.67;;;;;;;20.51;nan;99103.06;2099284;28;20206;-76
2022/06/28 00:10:17;;;;;;;21.80;20.00;;;;;;;20.53;nan;99102.72;2091246;28;20563;-76
2022/06/28 00:11:18;;;;;;;22.33;20.40;;;;;;;20.52;nan;99110.06;2090800;28;20516;-76
2022/06/28 00:12:19;;;;;;;21.80;19.80;;;;;;;20.52;nan;99099.22;2091495;28;20425;-76
2022/06/28 00:13:21;;;;;;;21.63;19.67;;;;;;;20.50;nan;99100.69;2091829;28;20190;-76
2022/06/28 00:17:02;;;;;;;21.60;19.93;;;;;;;20.39;nan;99111.31;2096474;28;20864;-76
2022/06/28 00:18:03;;;;;;;22.27;20.10;;;;;;;20.37;nan;99096.56;2091453;28;20458;-76
2022/06/28 00:19:05;;;;;;;22.17;19.90;;;;;;;20.35;nan;99104.28;2091265;28;20433;-76
2022/06/28 00:20:07;;;;;;;21.43;19.60;;;;;;;20.33;nan;99102.72;2091250;28;20328;-76
2022/06/28 00:21:09;;;;;;;22.37;20.37;;;;;;;20.31;nan;99099.56;2091300;28;20425;-76
2022/06/28 00:22:10;;;;;;;22.27;20.33;;;;;;;20.28;nan;99096.81;2091641;28;20414;-76
2022/06/28 00:23:11;;;;;;;21.90;19.90;;;;;;;20.26;nan;99093.69;2091397;28;20434;-76
2022/06/28 00:24:12;;;;;;;21.97;20.27;;;;;;;20.25;nan;99100.25;2082432;28;20607;-76
2022/06/28 00:25:16;;;;;;;22.53;20.47;;;;;;;20.22;nan;99096.31;2090817;28;20426;-76
2022/06/28 00:26:18;;;;;;;22.60;20.70;;;;;;;20.21;nan;99102.88;2091778;28;20571;-76
2022/06/28 00:27:18;;;;;;;21.53;19.93;;;;;;;20.18;nan;99100.91;2099090;28;20476;-76
2022/06/28 00:28:22;;;;;;;21.87;19.97;;;;;;;20.19;nan;99104.38;2099438;28;20441;-76
2022/06/28 00:29:22;;;;;;;21.97;20.07;;;;;;;20.18;nan;99097.41;2090629;28;20499;-76
2022/06/28 00:30:24;;;;;;;21.60;19.80;;;;;;;20.21;nan;99110.22;2090183;28;20442;-76
2022/06/28 00:31:27;;;;;;;22.80;20.67;;;;;;;20.22;nan;99100.94;2090365;28;20238;-76
2022/06/28 00:32:30;;;;;;;22.90;20.73;;;;;;;20.26;nan;99115.34;2098668;28;20425;-76
2022/06/28 00:33:31;;;;;;;21.87;20.07;;;;;;;20.27;nan;99106.88;2099223;28;20509;-76
2022/06/28 00:34:33;;;;;;;22.10;20.20;;;;;;;20.30;nan;99110.78;2090734;28;20507;-76
2022/06/28 00:35:33;;;;;;;21.53;19.93;;;;;;;20.30;nan;99110.78;2090814;28;20250;-76
2022/06/28 00:36:36;;;;;;;22.17;20.17;;;;;;;20.32;nan;99111.19;2090757;28;20442;-76
2022/06/28 00:37:37;;;;;;;22.03;20.03;;;;;;;20.32;nan;99114.69;2090380;28;20811;-76
2022/06/28 00:38:40;;;;;;;22.43;20.53;;;;;;;20.31;nan;99113.13;2091317;28;20459;-76
2022/06/28 00:39:41;;;;;;;23.07;20.90;;;;;;;20.31;nan;99115.84;2091373;28;20437;-76
2022/06/28 00:40:46;;;;;;;21.97;20.00;;;;;;;20.29;nan;99112.69;2091162;28;20911;-76
2022/06/28 00:41:47;;;;;;;23.00;20.80;;;;;;;20.26;nan;99112.66;2098928;28;20210;-76
2022/06/28 00:42:48;;;;;;;22.47;20.10;;;;;;;20.27;nan;99114.22;2099073;28;20420;-76
2022/06/28 00:43:51;;;;;;;21.70;19.90;;;;;;;20.24;nan;99114.91;2098712;28;20198;-76
2022/06/28 00:44:53;;;;;;;22.13;19.97;;;;;;;20.22;nan;99123.41;2099015;28;20478;-76
2022/06/28 00:45:54;;;;;;;22.17;20.17;;;;;;;20.24;nan;99120.34;2090465;28;20974;-76
2022/06/28 00:46:58;;;;;;;21.63;19.93;;;;;;;20.25;nan;99119.22;2092284;28;20445;-76
2022/06/28 00:47:59;;;;;;;22.37;20.20;;;;;;;20.24;nan;99115.72;2090438;28;20449;-76
2022/06/28 00:49:01;;;;;;;22.57;20.57;;;;;;;20.26;nan;99118.84;2090404;28;20441;-76
2022/06/28 00:50:02;;;;;;;22.03;20.10;;;;;;;20.24;nan;99104.88;2090915;28;20198;-77
2022/06/28 00:51:06;;;;;;;22.00;20.10;;;;;;;20.23;nan;99116.84;2090628;28;20435;-76
2022/06/28 00:52:09;;;;;;;22.20;20.50;;;;;;;20.20;nan;99117.56;2098196;28;20467;-76
2022/06/28 00:53:15;;;;;;;22.10;20.20;;;;;;;20.18;nan;99110.94;2098448;28;20526;-76
2022/06/28 00:54:15;;;;;;;22.77;20.47;;;;;;;20.15;nan;99114.34;2098657;28;20432;-76
2022/06/28 00:55:17;;;;;;;22.83;20.90;;;;;;;20.10;nan;99118.16;2098766;28;20436;-76
2022/06/28 00:56:18;;;;;;;22.30;20.10;;;;;;;20.07;nan;99116.16;2090580;28;20769;-76
2022/06/28 00:57:21;;;;;;;21.90;19.80;;;;;;;20.05;nan;99116.50;2090606;28;20552;-76
2022/06/28 00:58:24;;;;;;;22.97;20.73;;;;;;;20.02;nan;99119.94;2098618;28;20432;-76
2022/06/28 00:59:27;;;;;;;22.47;20.47;;;;;;;20.00;nan;99121.44;2098902;28;20445;-76
2022/06/28 01:00:30;;;;;;;21.57;19.70;;;;;;;19.97;nan;99114.78;2090311;28;20441;-76
2022/06/28 01:01:35;;;;;;;22.73;20.83;;;;;;;19.94;nan;99112.03;2090936;28;20533;-76
2022/06/28 01:02:35;;;;;;;23.50;21.70;;;;;;;19.88;nan;99106.09;2098583;28;20501;-76
2022/06/28 01:03:37;;;;;;;24.37;22.20;;;;;;;19.88;nan;99113.44;2098850;28;20432;-76
2022/06/28 01:04:40;;;;;;;23.37;21.17;;;;;;;19.87;nan;99118.06;2098836;28;20428;-76
2022/06/28 01:05:44;;;;;;;23.10;21.20;;;;;;;19.85;nan;99108.75;2098532;28;20428;-76
2022/06/28 01:06:45;;;;;;;22.67;20.50;;;;;;;19.82;nan;99115.66;2098026;28;20954;-75
2022/06/28 01:07:49;;;;;;;23.27;21.40;;;;;;;19.80;nan;99114.44;2090693;28;20449;-75
2022/06/28 01:08:50;;;;;;;24.20;21.97;;;;;;;19.76;nan;99112.44;2090338;28;20509;-76
2022/06/28 01:09:55;;;;;;;23.83;21.80;;;;;;;19.72;nan;99108.91;2090255;28;20450;-75
2022/06/28 01:10:57;;;;;;;23.53;21.20;;;;;;;19.69;nan;99103.41;2090583;28;20477;-75
2022/06/28 01:12:04;;;;;;;23.20;21.10;;;;;;;19.65;nan;99106.03;2090772;28;20449;-76
2022/06/28 01:13:09;;;;;;;23.60;21.37;;;;;;;19.62;nan;99106.72;2090437;28;20457;-75
2022/06/28 01:14:12;;;;;;;24.00;21.90;;;;;;;19.60;nan;99103.59;2090609;28;20529;-76
2022/06/28 01:15:30;;;;;;;24.50;22.47;;;;;;;19.57;nan;99104.31;2098687;28;20436;-75
2022/06/28 01:16:38;;;;;;;24.80;22.50;;;;;;;19.53;nan;99103.41;2090184;28;20449;-75
2022/06/28 01:17:46;;;;;;;25.43;22.87;;;;;;;19.52;nan;99106.47;2090416;28;20533;-75
2022/06/28 01:19:16;;;;;;;23.40;21.40;;;;;;;19.44;nan;99108.25;2077529;28;20504;-75
2022/06/28 01:20:21;;;;;;;24.27;21.67;;;;;;;19.40;nan;99110.09;2098373;28;20448;-76
2022/06/28 01:21:50;;;;;;;24.20;22.00;;;;;;;19.37;nan;99108.09;2079394;28;20466;-76
2022/06/28 01:22:54;;;;;;;24.87;22.23;;;;;;;19.34;nan;99104.16;2090138;28;20951;-75
2022/06/28 01:23:57;;;;;;;24.73;22.37;;;;;;;19.30;nan;99106.03;2090219;28;20433;-76
2022/06/28 01:25:29;;;;;;;24.43;22.10;;;;;;;19.27;nan;99117.53;2086092;28;20524;-76
2022/06/28 01:26:31;;;;;;;24.73;22.17;;;;;;;19.25;nan;99110.91;2091011;28;20433;-76
2022/06/28 01:27:34;;;;;;;25.83;22.20;;;;;;;19.22;nan;99114.34;2098377;28;20445;-76
2022/06/28 01:28:36;;;;;;;24.50;22.13;;;;;;;19.19;nan;99113.88;2098585;28;20445;-76
2022/06/28 01:29:51;;;;;;;24.30;21.93;;;;;;;19.18;nan;99130.47;2098455;28;20498;-76
2022/06/28 01:31:14;;;;;;;24.57;22.27;;;;;;;19.15;nan;99129.25;2095486;28;20434;-76
2022/06/28 01:32:15;;;;;;;25.73;23.17;;;;;;;19.09;nan;99113.63;2098299;28;20448;-76
2022/06/28 01:33:19;;;;;;;24.63;22.40;;;;;;;19.09;nan;99133.34;2098419;28;20421;-76
2022/06/28 01:34:22;;;;;;;24.33;21.77;;;;;;;19.07;nan;99130.22;2098441;28;20206;-76
2022/06/28 01:35:25;;;;;;;26.83;22.40;;;;;;;19.06;nan;99134.06;2090089;28;20491;-76
2022/06/28 01:36:26;;;;;;;22.90;21.03;;;;;;;19.04;nan;99130.16;2081303;28;20463;-76
2022/06/28 01:37:28;;;;;;;25.50;23.10;;;;;;;19.04;nan;99124.75;2082224;28;20454;-76
2022/06/28 01:38:30;;;;;;;25.20;22.70;;;;;;;19.03;nan;99134.78;2081907;28;20446;-76
2022/06/28 01:39:33;;;;;;;27.60;22.77;;;;;;;19.02;nan;99137.81;2090560;28;20831;-76
2022/06/28 01:40:34;;;;;;;25.23;22.10;;;;;;;19.02;nan;99132.41;2089993;28;20480;-76
2022/06/28 01:41:37;;;;;;;24.70;22.47;;;;;;;19.00;nan;99134.66;2090000;28;20486;-76
2022/06/28 01:42:44;;;;;;;24.37;22.10;;;;;;;19.00;nan;99127.34;2090131;28;20225;-76
2022/06/28 01:43:47;;;;;;;25.93;22.73;;;;;;;18.98;nan;99126.13;2090197;28;20445;-76
2022/06/28 01:44:48;;;;;;;24.33;22.23;;;;;;;18.99;nan;99136.59;2098794;28;20541;-76
2022/06/28 01:46:19;;;;;;;24.03;21.57;;;;;;;18.97;nan;99141.56;2091282;28;20449;-76
2022/06/28 01:47:34;;;;;;;23.30;20.97;;;;;;;18.97;nan;99138.88;2099233;28;20437;-76
2022/06/28 01:48:36;;;;;;;26.47;22.17;;;;;;;18.97;nan;99138.09;2098124;28;20813;-76
2022/06/28 01:49:38;;;;;;;23.83;21.50;;;;;;;18.97;nan;99136.16;2098669;28;20883;-76
2022/06/28 01:50:40;;;;;;;23.70;21.70;;;;;;;18.97;nan;99136.16;2089918;28;20469;-76
2022/06/28 01:51:40;;;;;;;23.63;21.47;;;;;;;18.98;nan;99140.44;2089562;28;20458;-76
2022/06/28 01:52:44;;;;;;;24.83;22.53;;;;;;;18.96;nan;99139.22;2099389;28;20535;-76
2022/06/28 01:54:09;;;;;;;23.43;21.23;;;;;;;18.94;nan;99142.28;2098477;28;20432;-76
2022/06/28 01:55:10;;;;;;;24.27;21.80;;;;;;;18.95;nan;99137.66;2098930;28;20456;-77
2022/06/28 01:56:17;;;;;;;23.43;21.33;;;;;;;18.93;nan;99140.69;2089719;28;20519;-76
2022/06/28 01:57:33;;;;;;;24.60;22.20;;;;;;;18.92;nan;99147.22;2092991;28;20450;-76
2022/06/28 01:58:35;;;;;;;23.97;21.77;;;;;;;18.91;nan;99148.38;2089887;28;20441;-76
2022/06/28 01:59:38;;;;;;;24.43;21.90;;;;;;;18.89;nan;99150.63;2081774;28;20454;-76
2022/06/28 02:00:48;;;;;;;23.13;21.13;;;;;;;18.89;nan;99156.06;2083349;28;20493;-77
2022/06/28 02:01:50;;;;;;;25.33;22.63;;;;;;;18.89;nan;99154.13;2089888;28;20471;-76
2022/06/28 02:02:54;;;;;;;24.23;22.13;;;;;;;18.90;nan;99157.63;2082579;28;20457;-76
2022/06/28 02:04:26;;;;;;;24.30;21.70;;;;;;;18.88;nan;99151.78;2085684;28;20502;-76
2022/06/28 02:05:34;;;;;;;23.57;21.67;;;;;;;18.89;nan;99153.34;2083349;28;20438;-76
2022/06/28 02:06:38;;;;;;;23.73;21.53;;;;;;;18.87;nan;99161.81;2081378;28;20454;-76
2022/06/28 02:07:47;;;;;;;23.77;21.87;;;;;;;18.86;nan;99159.47;2082586;28;20495;-76
2022/06/28 02:08:49;;;;;;;23.90;21.80;;;;;;;18.86;nan;99162.94;2089808;28;20499;-76
2022/06/28 02:09:58;;;;;;;25.67;21.60;;;;;;;18.86;nan;99168.34;2082573;28;20842;-76
2022/06/28 02:11:04;;;;;;;24.77;22.23;;;;;;;18.85;nan;99165.97;2082038;28;20453;-76
2022/06/28 02:12:35;;;;;;;24.53;22.30;;;;;;;18.86;nan;99168.34;2083905;28;20932;-76
2022/06/28 02:13:36;;;;;;;24.00;21.50;;;;;;;18.87;nan;99169.13;2098359;28;20535;-76
2022/06/28 02:14:41;;;;;;;24.10;21.90;;;;;;;18.88;nan;99168.00;2089802;28;20442;-76
2022/06/28 02:15:42;;;;;;;25.10;22.23;;;;;;;18.91;nan;99173.47;2090173;28;20472;-76
2022/06/28 02:16:44;;;;;;;23.80;21.70;;;;;;;18.94;nan;99172.03;2098354;28;20468;-76
2022/06/28 02:17:46;;;;;;;22.30;20.40;;;;;;;18.95;nan;99170.09;2098140;28;20248;-76
2022/06/28 02:18:49;;;;;;;22.33;20.17;;;;;;;19.00;nan;99170.59;2089724;28;20449;-76
2022/06/28 02:19:51;;;;;;;22.30;20.50;;;;;;;19.04;nan;99176.91;2090072;28;20482;-76
2022/06/28 02:20:55;;;;;;;22.70;20.80;;;;;;;19.06;nan;99173.84;2089170;28;20500;-76
2022/06/28 02:21:56;;;;;;;22.07;20.00;;;;;;;19.10;nan;99174.72;2090128;28;20199;-76
2022/06/28 02:23:02;;;;;;;21.87;20.17;;;;;;;19.09;nan;99173.91;2097392;28;20526;-76
2022/06/28 02:24:05;;;;;;;22.40;20.40;;;;;;;19.16;nan;99184.91;2098385;28;20958;-76
2022/06/28 02:25:09;;;;;;;22.87;20.70;;;;;;;19.18;nan;99184.56;2089732;28;20911;-76
2022/06/28 02:26:11;;;;;;;22.00;19.97;;;;;;;19.17;nan;99183.00;2090015;28;20790;-76
2022/06/28 02:27:12;;;;;;;21.30;19.70;;;;;;;19.18;nan;99182.63;2097824;28;20444;-76
2022/06/28 02:28:15;;;;;;;22.40;20.37;;;;;;;19.18;nan;99184.56;2089657;28;20433;-76
2022/06/28 02:29:18;;;;;;;23.27;21.07;;;;;;;19.15;nan;99175.25;2090450;28;20468;-76
2022/06/28 02:30:21;;;;;;;22.20;20.20;;;;;;;19.15;nan;99182.56;2097987;28;20487;-76
2022/06/28 02:31:22;;;;;;;23.73;21.40;;;;;;;19.15;nan;99177.94;2097986;28;20839;-76
2022/06/28 02:32:24;;;;;;;23.27;21.03;;;;;;;19.14;nan;99189.13;2098363;28;20883;-76
2022/06/28 02:33:25;;;;;;;23.43;21.30;;;;;;;19.10;nan;99186.31;2090093;28;20901;-76
2022/06/28 02:41:12;;;;;;;22.03;20.00;;;;;;;19.05;nan;99181.19;2095543;28;20413;-76
2022/06/28 02:42:13;;;;;;;21.40;19.80;;;;;;;19.05;nan;99191.22;2098232;28;20495;-76
2022/06/28 02:43:18;;;;;;;22.63;20.73;;;;;;;19.04;nan;99187.72;2097997;28;20432;-76
2022/06/28 02:44:19;;;;;;;22.03;20.00;;;;;;;19.04;nan;99187.72;2089993;28;20430;-76
2022/06/28 02:45:22;;;;;;;22.53;20.53;;;;;;;19.04;nan;99185.03;2097927;28;21053;-76
2022/06/28 02:46:22;;;;;;;22.20;20.30;;;;;;;19.04;nan;99193.13;2089635;28;20190;-76
2022/06/28 02:47:24;;;;;;;22.70;20.70;;;;;;;19.05;nan;99197.41;2081275;28;20449;-76
2022/06/28 02:48:25;;;;;;;22.33;20.53;;;;;;;19.03;nan;99194.28;2089783;28;20274;-76
2022/06/28 02:49:28;;;;;;;22.67;20.67;;;;;;;19.04;nan;99187.72;2097986;28;20447;-76
2022/06/28 02:50:32;;;;;;;23.00;20.87;;;;;;;19.01;nan;99193.81;2097650;28;20193;-76
2022/06/28 02:51:33;;;;;;;23.20;21.27;;;;;;;19.01;nan;99196.50;2097523;28;20456;-76
2022/06/28 02:52:34;;;;;;;21.97;20.17;;;;;;;19.00;nan;99194.16;2097864;28;20456;-76
2022/06/28 02:53:36;;;;;;;24.17;21.50;;;;;;;19.01;nan;99196.50;2089915;28;20430;-76
2022/06/28 02:54:36;;;;;;;22.53;20.83;;;;;;;19.03;nan;99198.91;2090551;28;20202;-76
2022/06/28 02:55:38;;;;;;;23.27;21.47;;;;;;;19.02;nan;99195.38;2083059;28;20537;-76
2022/06/28 02:56:42;;;;;;;23.03;21.10;;;;;;;19.03;nan;99199.69;2082950;28;20228;-76
2022/06/28 02:57:44;;;;;;;23.77;21.80;;;;;;;19.05;nan;99199.31;2091417;28;21018;-76
2022/06/28 02:58:45;;;;;;;23.63;21.43;;;;;;;19.07;nan;99197.03;2091264;28;20799;-76
2022/06/28 02:59:47;;;;;;;22.37;20.67;;;;;;;19.09;nan;99194.78;2091230;28;20437;-76
2022/06/28 03:00:47;;;;;;;24.40;21.87;;;;;;;19.13;nan;99193.75;2091728;28;20198;-76
2022/06/28 03:01:49;;;;;;;23.90;21.80;;;;;;;19.16;nan;99195.75;2091352;28;20457;-76
2022/06/28 03:02:51;;;;;;;24.33;22.10;;;;;;;19.17;nan;99183.78;2099546;28;20205;-76
2022/06/28 03:03:55;;;;;;;22.93;20.93;;;;;;;19.23;nan;99197.84;2091233;28;20449;-76
2022/06/28 03:04:55;;;;;;;23.53;21.20;;;;;;;19.25;nan;99186.66;2083406;28;20442;-76
2022/06/28 03:05:57;;;;;;;24.33;22.10;;;;;;;19.26;nan;99182.81;2082401;28;20945;-75
2022/06/28 03:06:59;;;;;;;23.50;21.60;;;;;;;19.29;nan;99191.03;2083125;28;20192;-76
2022/06/28 03:08:00;;;;;;;23.80;21.50;;;;;;;19.30;nan;99186.41;2091512;28;20425;-76
2022/06/28 03:09:04;;;;;;;23.43;21.33;;;;;;;19.33;nan;99196.50;2091289;28;20287;-76
2022/06/28 03:10:09;;;;;;;24.73;21.07;;;;;;;19.34;nan;99192.69;2091293;28;20413;-76
2022/06/28 03:11:11;;;;;;;23.60;21.20;;;;;;;19.37;nan;99200.06;2099548;28;20452;-76
2022/06/28 03:12:14;;;;;;;23.47;21.37;;;;;;;19.38;nan;99207.88;2091174;28;20958;-76
2022/06/28 03:13:14;;;;;;;22.87;20.77;;;;;;;19.39;nan;99201.31;2091537;28;20591;-76
2022/06/28 03:14:16;;;;;;;23.07;21.17;;;;;;;19.41;nan;99200.97;2091131;28;20437;-76
2022/06/28 03:15:17;;;;;;;23.50;21.30;;;;;;;19.42;nan;99200.59;2091139;28;20218;-76
2022/06/28 03:16:20;;;;;;;23.50;21.50;;;;;;;19.43;nan;99198.69;2099322;28;20477;-76
2022/06/28 03:17:21;;;;;;;22.47;20.53;;;;;;;19.43;nan;99199.47;2091114;28;20571;-76
2022/06/28 03:18:23;;;;;;;22.77;21.07;;;;;;;19.44;nan;99192.91;2091322;28;20982;-76
2022/06/28 03:19:24;;;;;;;24.57;21.97;;;;;;;19.45;nan;99201.81;2091136;28;20460;-76
2022/06/28 03:20:25;;;;;;;24.83;22.43;;;;;;;19.46;nan;99198.78;2082850;28;20497;-76
2022/06/28 03:21:26;;;;;;;24.90;22.60;;;;;;;19.44;nan;99192.13;2090775;28;20231;-76
2022/06/28 03:22:28;;;;;;;24.20;22.07;;;;;;;19.47;nan;99192.22;2091126;28;20476;-76
2022/06/28 03:23:30;;;;;;;23.50;21.10;;;;;;;19.48;nan;99191.09;2091392;28;20191;-76
2022/06/28 03:24:31;;;;;;;23.53;21.53;;;;;;;19.47;nan;99192.22;2091726;28;20440;-76
2022/06/28 03:25:33;;;;;;;23.47;21.47;;;;;;;19.45;nan;99188.28;2099411;28;20882;-76
2022/06/28 03:26:34;;;;;;;24.47;22.27;;;;;;;19.48;nan;99193.00;2099596;28;20539;-76
2022/06/28 03:27:38;;;;;;;25.07;22.90;;;;;;;19.45;nan;99191.00;2099531;28;20432;-76
2022/06/28 03:28:38;;;;;;;23.83;21.83;;;;;;;19.44;nan;99194.84;2099523;28;20206;-76
2022/06/28 03:29:40;;;;;;;24.40;22.40;;;;;;;19.40;nan;99191.28;2090957;28;20484;-76
2022/06/28 03:30:45;;;;;;;24.43;22.03;;;;;;;19.39;nan;99195.91;2091477;28;20199;-76
2022/06/28 03:31:46;;;;;;;25.03;22.17;;;;;;;19.37;nan;99195.47;2099287;28;20448;-75
2022/06/28 03:32:47;;;;;;;24.07;21.70;;;;;;;19.36;nan;99199.28;2091740;28;20449;-76
2022/06/28 03:33:55;;;;;;;24.90;21.73;;;;;;;19.35;nan;99194.25;2099440;28;20194;-76
2022/06/28 03:34:56;;;;;;;23.80;22.00;;;;;;;19.34;nan;99203.50;2099376;28;20440;-75
2022/06/28 03:36:01;;;;;;;24.70;22.50;;;;;;;19.32;nan;99205.78;2098692;28;20250;-76
2022/06/28 03:37:09;;;;;;;24.17;22.13;;;;;;;19.31;nan;99199.59;2098061;28;20894;-75
2022/06/28 03:38:16;;;;;;;24.43;21.87;;;;;;;19.29;nan;99201.84;2091745;28;20473;-75
2022/06/28 03:39:50;;;;;;;23.93;21.93;;;;;;;19.27;nan;99203.31;2074273;28;20461;-76
2022/06/28 03:40:52;;;;;;;24.33;22.23;;;;;;;19.29;nan;99199.16;2083990;28;20456;-76
2022/06/28 03:41:53;;;;;;;24.47;22.37;;;;;;;19.27;nan;99197.91;2091011;28;20433;-76
2022/06/28 03:43:01;;;;;;;23.97;21.77;;;;;;;19.28;nan;99199.47;2091025;28;20290;-76
2022/06/28 03:44:03;;;;;;;24.57;22.10;;;;;;;19.27;nan;99195.22;2083541;28;20437;-76
2022/06/28 03:45:06;;;;;;;30.33;22.77;;;;;;;19.27;nan;99196.00;2082921;28;20458;-76
2022/06/28 03:46:08;;;;;;;26.20;23.70;;;;;;;19.26;nan;99197.13;2083040;28;20434;-74
2022/06/28 03:47:20;;;;;;;25.67;23.23;;;;;;;19.25;nan;99192.06;2090959;28;20939;-74
2022/06/28 03:48:40;;;;;;;26.50;23.80;;;;;;;19.27;nan;99197.91;2091272;28;20382;-75
2022/06/28 03:49:53;;;;;;;26.40;23.70;;;;;;;19.28;nan;99194.06;2091816;28;20417;-74
2022/06/28 03:51:04;;;;;;;26.33;24.03;;;;;;;19.26;nan;99197.13;2090387;28;20442;-75
2022/06/28 03:52:15;;;;;;;26.23;23.67;;;;;;;19.27;nan;99193.28;2084019;28;20446;-75
2022/06/28 03:53:39;;;;;;;26.40;23.73;;;;;;;19.30;nan;99199.94;2091278;28;20437;-75
2022/06/28 03:54:53;;;;;;;25.87;23.53;;;;;;;19.32;nan;99200.38;2099321;28;20424;-75
2022/06/28 03:56:07;;;;;;;25.17;22.90;;;;;;;19.36;nan;99195.81;2099502;28;20978;-75
2022/06/28 03:57:10;;;;;;;26.47;23.57;;;;;;;19.36;nan;99198.50;2090618;28;20469;-75
2022/06/28 03:58:12;;;;;;;26.57;24.07;;;;;;;19.37;nan;99192.78;2090791;28;20502;-75
2022/06/28 03:59:14;;;;;;;26.53;24.07;;;;;;;19.38;nan;99202.47;2082830;28;20446;-75
2022/06/28 04:00:15;;;;;;;25.73;22.87;;;;;;;19.38;nan;99196.25;2082576;28;20454;-74
2022/06/28 04:01:21;;;;;;;24.80;22.67;;;;;;;19.41;nan;99200.97;2083509;28;20522;-74
2022/06/28 04:02:22;;;;;;;25.60;23.10;;;;;;;19.42;nan;99208.72;2082578;28;21029;-75
2022/06/28 04:03:25;;;;;;;25.33;22.87;;;;;;;19.44;nan;99208.38;2090773;28;20876;-75
2022/06/28 04:04:27;;;;;;;26.03;23.33;;;;;;;19.43;nan;99195.97;2090808;28;20244;-75
2022/06/28 04:05:30;;;;;;;26.23;23.10;;;;;;;19.46;nan;99204.19;2082580;28;20450;-74
2022/06/28 04:06:35;;;;;;;26.43;23.77;;;;;;;19.46;nan;99204.19;2082734;28;20937;-75
2022/06/28 04:07:37;;;;;;;25.07;22.93;;;;;;;19.48;nan;99209.25;2082730;28;20472;-75
2022/06/28 04:08:38;;;;;;;25.80;23.27;;;;;;;19.51;nan;99207.75;2082835;28;20453;-74
2022/06/28 04:09:39;;;;;;;26.60;24.00;;;;;;;19.51;nan;99205.06;2082651;28;20537;-75
2022/06/28 04:10:42;;;;;;;25.73;23.40;;;;;;;19.52;nan;99212.81;2082604;28;20200;-74
2022/06/28 04:11:48;;;;;;;26.00;23.37;;;;;;;19.54;nan;99212.47;2090981;28;20439;-75
2022/06/28 04:12:51;;;;;;;26.30;24.10;;;;;;;19.54;nan;99215.16;2090660;28;20812;-74
2022/06/28 04:13:57;;;;;;;25.03;22.73;;;;;;;19.57;nan;99217.22;2082939;28;20496;-74
2022/06/28 04:14:57;;;;;;;25.53;23.33;;;;;;;19.61;nan;99213.44;2082922;28;20450;-74
2022/06/28 04:15:59;;;;;;;25.30;23.30;;;;;;;19.62;nan;99209.59;2082451;28;20489;-74
2022/06/28 04:17:00;;;;;;;32.43;24.30;;;;;;;19.69;nan;99208.97;2082598;28;20295;-74
2022/06/28 04:18:15;;;;;;;25.57;23.10;;;;;;;19.73;nan;99207.16;2084415;28;20441;-74
2022/06/28 04:19:25;;;;;;;24.30;22.00;;;;;;;19.76;nan;99209.91;2090999;28;20448;-74
2022/06/28 04:20:28;;;;;;;24.93;22.63;;;;;;;19.80;nan;99198.38;2090626;28;20450;-74
2022/06/28 04:21:38;;;;;;;25.33;23.03;;;;;;;19.85;nan;99198.09;2091782;28;20821;-74
2022/06/28 04:22:45;;;;;;;24.83;22.57;;;;;;;19.88;nan;99194.69;2090967;28;20452;-74
2022/06/28 04:23:48;;;;;;;25.47;23.07;;;;;;;19.92;nan;99195.56;2082512;28;20805;-74
2022/06/28 04:24:51;;;;;;;25.40;22.73;;;;;;;19.95;nan;99194.84;2091015;28;20449;-75
2022/06/28 04:26:00;;;;;;;25.50;23.33;;;;;;;19.99;nan;99195.72;2090599;28;20470;-74
2022/06/28 04:27:13;;;;;;;25.80;23.37;;;;;;;20.04;nan;99198.91;2090574;28;20525;-75
2022/06/28 04:28:14;;;;;;;23.67;21.53;;;;;;;20.05;nan;99195.06;2090580;28;20878;-75
2022/06/28 04:29:27;;;;;;;25.70;23.17;;;;;;;20.11;nan;99198.28;2084051;28;20469;-74
2022/06/28 04:30:28;;;;;;;25.73;23.07;;;;;;;20.13;nan;99201.41;2082389;28;20888;-75
2022/06/28 04:31:37;;;;;;;25.63;23.27;;;;;;;20.14;nan;99194.06;2091461;28;20418;-75
2022/06/28 04:32:38;;;;;;;25.27;22.60;;;;;;;20.15;nan;99201.81;2098780;28;20440;-75
2022/06/28 04:33:43;;;;;;;25.10;23.00;;;;;;;20.15;nan;99196.41;2098694;28;20876;-75
2022/06/28 04:34:47;;;;;;;25.63;23.13;;;;;;;20.17;nan;99194.16;2098826;28;20444;-75
2022/06/28 04:35:50;;;;;;;25.30;23.10;;;;;;;20.20;nan;99198.84;2098520;28;20441;-75
2022/06/28 04:36:51;;;;;;;26.07;23.50;;;;;;;20.23;nan;99197.34;2098395;28;20500;-75
2022/06/28 04:37:53;;;;;;;25.47;22.93;;;;;;;20.25;nan;99197.78;2098716;28;20479;-74
2022/06/28 04:39:07;;;;;;;25.77;23.43;;;;;;;20.29;nan;99204.84;2084119;28;20199;-75
2022/06/28 04:40:15;;;;;;;26.20;23.93;;;;;;;20.32;nan;99193.28;2090448;28;20452;-74
2022/06/28 04:41:26;;;;;;;27.03;24.33;;;;;;;20.38;nan;99195.72;2083818;28;20474;-74
2022/06/28 04:42:31;;;;;;;26.50;23.73;;;;;;;20.39;nan;99198.06;2083004;28;20533;-74
2022/06/28 04:43:34;;;;;;;28.63;24.40;;;;;;;20.44;nan;99197.03;2082588;28;20448;-75
2022/06/28 04:44:40;;;;;;;26.40;23.93;;;;;;;20.51;nan;99197.16;2090493;28;20449;-75
2022/06/28 04:45:44;;;;;;;27.27;24.17;;;;;;;20.55;nan;99200.72;2090830;28;20445;-75
2022/06/28 04:46:48;;;;;;;26.37;23.67;;;;;;;20.59;nan;99196.94;2090971;28;20446;-75
2022/06/28 04:47:52;;;;;;;26.13;23.40;;;;;;;20.66;nan;99201.69;2090586;28;20564;-75
2022/06/28 04:48:54;;;;;;;26.73;23.80;;;;;;;20.73;nan;99201.81;2090991;28;20495;-75
2022/06/28 04:50:01;;;;;;;26.77;24.13;;;;;;;20.83;nan;99206.66;2098700;28;20305;-75
2022/06/28 04:51:12;;;;;;;27.53;24.10;;;;;;;20.91;nan;99198.63;2090256;28;20434;-75
2022/06/28 04:52:16;;;;;;;26.60;24.17;;;;;;;21.01;nan;99196.09;2083822;28;20204;-75
2022/06/28 04:53:23;;;;;;;26.93;24.20;;;;;;;21.13;nan;99195.16;2083207;28;20526;-75
2022/06/28 04:54:27;;;;;;;26.53;24.20;;;;;;;21.23;nan;99196.47;2090726;28;20979;-75
2022/06/28 04:55:48;;;;;;;26.37;23.83;;;;;;;21.35;nan;99197.06;2096613;28;20387;-75
2022/06/28 04:56:49;;;;;;;26.77;24.37;;;;;;;21.48;nan;99203.09;2090208;28;20520;-75
2022/06/28 04:57:51;;;;;;;28.17;25.10;;;;;;;21.63;nan;99201.34;2082121;28;20450;-74
2022/06/28 04:58:54;;;;;;;26.57;23.67;;;;;;;21.76;nan;99202.72;2090360;28;20195;-75
2022/06/28 04:59:59;;;;;;;26.43;23.80;;;;;;;21.88;nan;99194.34;2090339;28;20864;-75
2022/06/28 05:01:10;;;;;;;28.17;24.40;;;;;;;22.02;nan;99199.19;2091873;28;20882;-75
2022/06/28 05:02:12;;;;;;;25.90;23.57;;;;;;;22.13;nan;99199.34;2090273;28;20803;-74
2022/06/28 05:03:12;;;;;;;26.83;24.33;;;;;;;22.26;nan;99198.75;2082087;28;20427;-75
2022/06/28 05:04:34;;;;;;;26.03;23.33;;;;;;;22.41;nan;99196.97;2089062;28;20438;-75
2022/06/28 05:05:41;;;;;;;26.57;24.03;;;;;;;22.52;nan;99197.88;2098536;28;20432;-75
2022/06/28 05:06:43;;;;;;;26.40;23.57;;;;;;;22.61;nan;99199.50;2097923;28;20503;-75
2022/06/28 05:07:44;;;;;;;26.27;23.60;;;;;;;22.70;nan;99205.44;2098478;28;20444;-75
2022/06/28 05:08:56;;;;;;;26.73;23.73;;;;;;;22.79;nan;99198.53;2090253;28;20464;-75
2022/06/28 05:09:57;;;;;;;27.77;24.20;;;;;;;22.87;nan;99188.53;2090569;28;20453;-74
2022/06/28 05:10:59;;;;;;;27.10;24.73;;;;;;;22.98;nan;99189.41;2098451;28;20468;-74
2022/06/28 05:12:08;;;;;;;27.73;24.83;;;;;;;23.07;nan;99192.59;2098877;28;20440;-75
2022/06/28 05:13:13;;;;;;;26.70;24.10;;;;;;;23.14;nan;99191.88;2098208;28;20451;-75
2022/06/28 05:14:16;;;;;;;29.90;24.97;;;;;;;23.21;nan;99183.78;2098776;28;20535;-75